createdAt,value
2023-04-22T00:01:05.512Z,9.37
2023-04-22T00:03:34.112Z,9.36
2023-04-22T00:06:03.601Z,9.33
2023-04-22T00:08:31.390Z,9.28
2023-04-22T00:10:59.943Z,9.26
2023-04-22T00:13:27.887Z,9.18
2023-04-22T00:15:57.901Z,9.18
2023-04-22T00:18:26.042Z,9.18
2023-04-22T00:20:53.828Z,9.19
2023-04-22T00:23:22.938Z,9.12
2023-04-22T00:25:50.683Z,9.22
2023-04-22T00:28:18.476Z,9.19
2023-04-22T00:30:46.301Z,9.17
2023-04-22T00:33:14.129Z,9.17
2023-04-22T00:35:42.063Z,9.17
2023-04-22T00:38:09.794Z,9.12
2023-04-22T00:40:39.010Z,9.08
2023-04-22T00:43:07.381Z,9.06
2023-04-22T00:45:37.728Z,9.06
2023-04-22T00:48:06.257Z,9.01
2023-04-22T00:50:34.140Z,9.00
2023-04-22T00:53:01.935Z,8.97
2023-04-22T00:55:29.857Z,8.96
2023-04-22T00:58:01.709Z,8.94
2023-04-22T01:00:30.200Z,8.91
2023-04-22T01:02:59.062Z,8.91
2023-04-22T01:05:27.982Z,8.86
2023-04-22T01:07:55.787Z,8.80
2023-04-22T01:10:23.983Z,8.80
2023-04-22T01:12:51.805Z,8.79
2023-04-22T01:15:21.217Z,8.75
2023-04-22T01:17:49.147Z,8.75
2023-04-22T01:20:17.157Z,8.72
2023-04-22T01:22:46.650Z,8.70
2023-04-22T01:25:15.940Z,8.69
2023-04-22T01:27:44.201Z,8.65
2023-04-22T01:30:12.860Z,8.64
2023-04-22T01:32:41.416Z,8.57
2023-04-22T01:35:10.891Z,8.60
2023-04-22T01:37:39.502Z,8.54
2023-04-22T01:40:10.258Z,8.46
2023-04-22T01:42:40.058Z,8.41
2023-04-22T01:45:08.832Z,8.35
2023-04-22T01:47:36.789Z,8.28
2023-04-22T01:50:04.849Z,8.21
2023-04-22T01:52:32.582Z,8.19
2023-04-22T01:55:01.339Z,8.17
2023-04-22T01:57:29.117Z,8.17
2023-04-22T01:59:58.867Z,8.18
2023-04-22T02:02:26.862Z,8.09
2023-04-22T02:04:54.712Z,8.12
2023-04-22T02:07:22.501Z,8.12
2023-04-22T02:09:50.974Z,8.03
2023-04-22T02:12:18.913Z,8.07
2023-04-22T02:14:46.717Z,8.07
2023-04-22T02:17:17.832Z,8.05
2023-04-22T02:19:45.950Z,8.03
2023-04-22T02:22:13.824Z,8.05
2023-04-22T02:24:43.073Z,8.03
2023-04-22T02:27:11.008Z,8.01
2023-04-22T02:29:39.017Z,8.03
2023-04-22T02:32:07.163Z,8.09
2023-04-22T02:34:36.549Z,8.08
2023-04-22T02:37:04.393Z,8.10
2023-04-22T02:39:32.162Z,8.10
2023-04-22T02:41:59.962Z,8.10
2023-04-22T02:44:27.764Z,8.10
2023-04-22T02:46:55.777Z,8.00
2023-04-22T02:49:23.633Z,8.09
2023-04-22T02:51:52.837Z,8.11
2023-04-22T02:54:20.589Z,8.11
2023-04-22T02:56:48.343Z,8.10
2023-04-22T02:59:16.065Z,8.11
2023-04-22T03:01:43.847Z,8.10
2023-04-22T03:04:14.347Z,8.09
2023-04-22T03:06:42.267Z,8.08
2023-04-22T03:09:11.807Z,8.06
2023-04-22T03:11:39.633Z,8.08
2023-04-22T03:14:07.400Z,8.07
2023-04-22T03:16:35.215Z,8.09
2023-04-22T03:19:03.034Z,8.05
2023-04-22T03:21:32.244Z,8.09
2023-04-22T03:24:00.195Z,8.06
2023-04-22T03:26:29.442Z,8.11
2023-04-22T03:28:57.231Z,8.10
2023-04-22T03:31:25.156Z,8.10
2023-04-22T03:33:52.913Z,8.10
2023-04-22T03:36:21.458Z,8.10
2023-04-22T03:38:49.841Z,8.11
2023-04-22T03:41:17.737Z,8.11
2023-04-22T03:43:46.815Z,8.11
2023-04-22T03:46:14.692Z,8.11
2023-04-22T03:48:42.490Z,8.11
2023-04-22T03:51:10.320Z,8.11
2023-04-22T03:53:38.069Z,8.03
2023-04-22T03:56:06.292Z,8.04
2023-04-22T03:58:34.054Z,8.10
2023-04-22T04:01:03.218Z,8.10
2023-04-22T04:03:31.725Z,8.08
2023-04-22T04:05:59.782Z,8.10
2023-04-22T04:08:27.898Z,8.06
2023-04-22T04:10:56.000Z,8.10
2023-04-22T04:13:23.786Z,8.08
2023-04-22T04:15:52.556Z,8.06
2023-04-22T04:18:21.700Z,8.01
2023-04-22T04:20:51.448Z,8.05
2023-04-22T04:23:19.385Z,8.06
2023-04-22T04:25:47.738Z,8.01
2023-04-22T04:28:15.541Z,8.01
2023-04-22T04:30:43.273Z,8.00
2023-04-22T04:33:12.365Z,7.99
2023-04-22T04:35:41.786Z,8.00
2023-04-22T04:38:09.618Z,8.00
2023-04-22T04:40:37.340Z,7.98
2023-04-22T04:43:08.458Z,8.00
2023-04-22T04:45:37.743Z,8.00
2023-04-22T04:48:07.109Z,8.00
2023-04-22T04:50:35.314Z,7.99
2023-04-22T04:53:04.472Z,7.97
2023-04-22T04:55:32.283Z,7.97
2023-04-22T04:58:00.167Z,7.95
2023-04-22T05:00:28.070Z,7.95
2023-04-22T05:02:55.910Z,7.95
2023-04-22T05:05:23.743Z,7.97
2023-04-22T05:07:51.787Z,8.00
2023-04-22T05:10:21.406Z,8.01
2023-04-22T05:12:49.143Z,8.02
2023-04-22T05:15:17.024Z,8.00
2023-04-22T05:17:44.949Z,8.04
2023-04-22T05:20:13.050Z,8.03
2023-04-22T05:22:43.154Z,8.07
2023-04-22T05:25:11.759Z,8.08
2023-04-22T05:27:41.746Z,8.11
2023-04-22T05:30:10.745Z,8.11
2023-04-22T05:32:38.564Z,8.11
2023-04-22T05:35:07.400Z,8.15
2023-04-22T05:37:35.134Z,8.17
2023-04-22T05:40:02.927Z,8.18
2023-04-22T05:42:30.681Z,8.17
2023-04-22T05:44:59.735Z,8.19
2023-04-22T05:47:36.409Z,8.24
2023-04-22T05:50:04.790Z,8.27
2023-04-22T05:52:32.638Z,8.30
2023-04-22T05:55:00.390Z,8.29
2023-04-22T05:57:28.106Z,8.30
2023-04-22T05:59:59.870Z,8.31
2023-04-22T06:02:28.232Z,8.33
2023-04-22T06:05:00.599Z,8.34
2023-04-22T06:07:28.564Z,8.38
2023-04-22T06:10:04.097Z,8.40
2023-04-22T06:12:34.303Z,8.39
2023-04-22T06:15:04.052Z,8.49
2023-04-22T06:17:33.869Z,8.51
2023-04-22T06:20:02.098Z,8.49
2023-04-22T06:22:29.902Z,8.56
2023-04-22T06:24:57.665Z,8.57
2023-04-22T06:27:25.493Z,8.57
2023-04-22T06:29:53.245Z,8.58
2023-04-22T06:32:22.408Z,8.55
2023-04-22T06:34:50.226Z,8.64
2023-04-22T06:37:18.017Z,8.68
2023-04-22T06:39:45.884Z,8.72
2023-04-22T06:42:13.752Z,8.78
2023-04-22T06:44:41.523Z,8.73
2023-04-22T06:47:09.321Z,8.83
2023-04-22T06:49:39.692Z,8.88
2023-04-22T06:52:07.723Z,8.91
2023-04-22T06:54:35.538Z,8.96
2023-04-22T06:57:03.435Z,9.04
2023-04-22T06:59:31.203Z,9.09
2023-04-22T07:01:59.140Z,9.14
2023-04-22T07:04:27.728Z,9.18
2023-04-22T07:06:56.897Z,9.23
2023-04-22T07:09:24.669Z,9.30
2023-04-22T07:11:52.428Z,9.39
2023-04-22T07:14:20.212Z,9.50
2023-04-22T07:16:48.408Z,9.62
2023-04-22T07:19:16.370Z,9.75
2023-04-22T07:21:44.198Z,9.89
2023-04-22T07:24:13.365Z,10.01
2023-04-22T07:26:42.020Z,10.15
2023-04-22T07:29:09.924Z,10.23
2023-04-22T07:31:37.993Z,10.34
2023-04-22T07:34:06.250Z,10.44
2023-04-22T07:36:34.112Z,10.55
2023-04-22T07:39:02.029Z,10.65
2023-04-22T07:41:31.770Z,10.74
2023-04-22T07:43:59.545Z,10.84
2023-04-22T07:46:27.348Z,10.97
2023-04-22T07:48:55.159Z,11.13
2023-04-22T07:51:22.972Z,11.32
2023-04-22T07:53:50.737Z,11.44
2023-04-22T07:56:18.612Z,11.55
2023-04-22T07:58:47.712Z,11.65
2023-04-22T08:01:16.682Z,11.83
2023-04-22T08:03:45.960Z,12.01
2023-04-22T08:06:13.815Z,12.08
2023-04-22T08:08:41.579Z,12.17
2023-04-22T08:11:09.307Z,12.29
2023-04-22T08:13:37.024Z,12.35
2023-04-22T08:16:07.419Z,12.46
2023-04-22T08:18:35.375Z,12.55
2023-04-22T08:21:03.335Z,12.60
2023-04-22T08:23:31.393Z,12.60
2023-04-22T08:25:59.635Z,12.64
2023-04-22T08:28:27.464Z,12.80
2023-04-22T08:30:55.249Z,12.94
2023-04-22T08:33:26.540Z,13.06
2023-04-22T08:35:55.034Z,13.17
2023-04-22T08:38:22.854Z,13.29
2023-04-22T08:40:51.590Z,13.46
2023-04-22T08:43:19.490Z,13.52
2023-04-22T08:45:47.252Z,13.75
2023-04-22T08:48:15.730Z,13.75
2023-04-22T08:50:45.871Z,13.84
2023-04-22T08:53:14.027Z,13.90
2023-04-22T08:55:44.749Z,13.91
2023-04-22T08:58:13.233Z,13.99
2023-04-22T09:00:43.269Z,14.03
2023-04-22T09:03:11.228Z,14.09
2023-04-22T09:05:41.856Z,14.14
2023-04-22T09:08:11.888Z,14.24
2023-04-22T09:10:40.184Z,14.31
2023-04-22T09:13:08.560Z,14.26
2023-04-22T09:15:36.335Z,14.26
2023-04-22T09:18:05.568Z,14.26
2023-04-22T09:20:33.360Z,14.28
2023-04-22T09:23:05.200Z,14.31
2023-04-22T09:25:36.212Z,14.20
2023-04-22T09:28:04.301Z,14.23
2023-04-22T09:30:34.032Z,14.24
2023-04-22T09:33:04.158Z,14.28
2023-04-22T09:35:33.953Z,14.32
2023-04-22T09:38:03.608Z,14.40
2023-04-22T09:40:32.695Z,14.53
2023-04-22T09:43:03.740Z,14.64
2023-04-22T09:45:33.582Z,14.74
2023-04-22T09:48:04.149Z,14.86
2023-04-22T09:50:32.072Z,15.05
2023-04-22T09:53:02.386Z,15.22
2023-04-22T09:55:33.088Z,15.41
2023-04-22T09:58:08.476Z,15.64
2023-04-22T10:00:38.444Z,15.75
2023-04-22T10:03:08.113Z,15.86
2023-04-22T10:05:38.541Z,15.93
2023-04-22T10:08:06.841Z,16.00
2023-04-22T10:10:35.367Z,15.98
2023-04-22T10:13:05.720Z,15.94
2023-04-22T10:15:35.985Z,16.01
2023-04-22T10:18:06.624Z,16.02
2023-04-22T10:20:38.262Z,16.06
2023-04-22T10:23:06.919Z,16.17
2023-04-22T10:25:34.685Z,16.27
2023-04-22T10:28:05.812Z,16.35
2023-04-22T10:30:35.274Z,16.34
2023-04-22T10:33:39.498Z,16.31
2023-04-22T10:36:09.305Z,16.23
2023-04-22T10:38:37.499Z,16.19
2023-04-22T10:41:05.936Z,16.04
2023-04-22T10:43:46.434Z,15.99
2023-04-22T10:47:03.277Z,15.98
2023-04-22T10:49:33.006Z,15.98
2023-04-22T10:52:01.830Z,15.93
2023-04-22T10:54:58.512Z,15.86
2023-04-22T10:57:37.850Z,15.70
2023-04-22T11:00:25.169Z,15.44
2023-04-22T11:02:55.991Z,15.39
2023-04-22T11:05:27.330Z,15.29
2023-04-22T11:07:57.243Z,15.20
2023-04-22T11:10:43.795Z,15.05
2023-04-22T11:13:15.032Z,15.03
2023-04-22T11:15:45.818Z,14.94
2023-04-22T11:18:22.099Z,14.96
2023-04-22T11:20:50.953Z,14.78
2023-04-22T11:23:20.972Z,14.65
2023-04-22T11:25:49.212Z,14.47
2023-04-22T11:28:16.934Z,14.25
2023-04-22T11:30:46.274Z,14.06
2023-04-22T11:33:16.639Z,13.88
2023-04-22T11:35:50.546Z,13.90
2023-04-22T11:38:18.347Z,14.02
2023-04-22T11:40:47.495Z,13.99
2023-04-22T11:43:15.696Z,13.74
2023-04-22T11:45:43.805Z,13.79
2023-04-22T11:48:13.216Z,13.82
2023-04-22T11:50:42.455Z,13.71
2023-04-22T11:53:16.068Z,13.60
2023-04-22T11:55:45.504Z,13.68
2023-04-22T11:58:15.477Z,13.75
2023-04-22T12:00:44.804Z,13.85
2023-04-22T12:03:17.916Z,13.89
2023-04-22T12:05:47.386Z,13.87
2023-04-22T12:08:17.409Z,13.75
2023-04-22T12:10:46.622Z,13.37
2023-04-22T12:13:21.966Z,13.28
2023-04-22T12:15:54.283Z,13.28
2023-04-22T12:18:31.681Z,13.00
2023-04-22T12:21:09.278Z,13.06
2023-04-22T12:23:43.328Z,13.09
2023-04-22T12:26:11.302Z,13.22
2023-04-22T12:28:40.122Z,13.23
2023-04-22T12:31:08.795Z,13.28
2023-04-22T12:33:39.213Z,13.15
2023-04-22T12:36:07.926Z,13.16
2023-04-22T12:38:36.360Z,13.17
2023-04-22T12:41:05.221Z,13.17
2023-04-22T12:43:36.458Z,13.09
2023-04-22T12:46:05.057Z,13.07
2023-04-22T12:48:33.252Z,13.08
2023-04-22T12:51:02.394Z,13.10
2023-04-22T12:53:30.754Z,13.19
2023-04-22T12:55:59.283Z,13.14
2023-04-22T12:58:27.623Z,13.11
2023-04-22T13:00:55.404Z,13.22
2023-04-22T13:03:23.280Z,13.19
2023-04-22T13:05:51.140Z,13.23
2023-04-22T13:08:20.393Z,13.25
2023-04-22T13:10:48.198Z,13.14
2023-04-22T13:13:18.856Z,13.15
2023-04-22T13:15:47.478Z,13.15
2023-04-22T13:18:16.241Z,13.13
2023-04-22T13:20:44.131Z,13.17
2023-04-22T13:23:13.285Z,13.14
2023-04-22T13:25:42.560Z,13.15
2023-04-22T13:28:11.575Z,13.06
2023-04-22T13:30:39.684Z,13.02
2023-04-22T13:33:07.828Z,12.91
2023-04-22T13:35:35.616Z,12.97
2023-04-22T13:38:03.512Z,12.89
2023-04-22T13:40:31.456Z,12.95
2023-04-22T13:43:00.629Z,12.92
2023-04-22T13:45:28.535Z,12.95
2023-04-22T13:47:56.420Z,13.02
2023-04-22T13:50:24.857Z,12.91
2023-04-22T13:52:52.674Z,12.89
2023-04-22T13:55:20.567Z,12.85
2023-04-22T13:57:48.444Z,12.76
2023-04-22T14:00:17.943Z,12.70
2023-04-22T14:02:45.960Z,12.71
2023-04-22T14:05:13.850Z,12.67
2023-04-22T14:07:41.726Z,12.60
2023-04-22T14:10:12.172Z,12.63
2023-04-22T14:12:40.194Z,12.58
2023-04-22T14:15:11.058Z,12.52
2023-04-22T14:17:40.901Z,12.49
2023-04-22T14:20:11.167Z,12.41
2023-04-22T14:22:39.088Z,12.32
2023-04-22T14:25:08.447Z,12.27
2023-04-22T14:27:36.302Z,12.13
2023-04-22T14:30:05.316Z,12.09
2023-04-22T14:32:33.493Z,12.12
2023-04-22T14:35:02.809Z,12.12
2023-04-22T14:37:31.785Z,12.01
2023-04-22T14:39:59.807Z,11.90
2023-04-22T14:42:28.254Z,11.87
2023-04-22T14:44:56.022Z,11.82
2023-04-22T14:47:23.972Z,11.63
2023-04-22T14:49:51.761Z,11.45
2023-04-22T14:52:23.299Z,11.37
2023-04-22T14:54:52.095Z,11.39
2023-04-22T14:57:20.660Z,11.35
2023-04-22T14:59:48.488Z,11.34
2023-04-22T15:02:16.848Z,11.43
2023-04-22T15:04:45.377Z,11.37
2023-04-22T15:07:13.221Z,11.29
2023-04-22T15:09:42.617Z,11.27
2023-04-22T15:12:10.853Z,11.21
2023-04-22T15:14:39.823Z,11.11
2023-04-22T15:17:09.476Z,11.13
2023-04-22T15:19:37.945Z,10.96
2023-04-22T15:22:05.876Z,10.88
2023-04-22T15:24:33.637Z,10.89
2023-04-22T15:27:03.279Z,10.84
2023-04-22T15:29:32.183Z,10.79
2023-04-22T15:32:00.083Z,10.84
2023-04-22T15:34:30.604Z,10.87
2023-04-22T15:36:58.702Z,10.87
2023-04-22T15:39:26.564Z,10.88
2023-04-22T15:41:54.333Z,10.85
2023-04-22T15:44:23.584Z,10.81
2023-04-22T15:50:28.165Z,10.55
2023-04-22T15:52:55.948Z,10.52
2023-04-22T15:55:24.140Z,10.28
2023-04-22T15:57:51.897Z,10.24
2023-04-22T16:00:21.277Z,10.21
2023-04-22T16:02:55.385Z,10.20
2023-04-22T16:05:24.965Z,10.22
2023-04-22T16:07:53.558Z,10.18
2023-04-22T16:10:21.907Z,10.17
2023-04-22T16:12:49.945Z,10.33
2023-04-22T16:15:17.947Z,10.39
2023-04-22T16:17:47.175Z,10.38
2023-04-22T16:20:14.953Z,10.46
2023-04-22T16:22:42.727Z,10.53
2023-04-22T16:25:11.143Z,10.55
2023-04-22T16:27:38.895Z,10.63
2023-04-22T16:30:07.829Z,10.71
2023-04-22T16:32:35.647Z,10.81
2023-04-22T16:35:07.958Z,10.83
2023-04-22T16:37:36.788Z,10.87
2023-04-22T16:40:06.156Z,10.87
2023-04-22T16:42:33.938Z,10.96
2023-04-22T16:45:05.864Z,11.02
2023-04-22T16:47:33.720Z,10.93
2023-04-22T16:50:01.582Z,10.98
2023-04-22T16:52:31.143Z,10.95
2023-04-22T16:54:58.941Z,10.96
2023-04-22T16:57:26.707Z,10.96
2023-04-22T16:59:54.442Z,11.01
2023-04-22T17:02:22.402Z,11.06
2023-04-22T17:04:50.256Z,11.05
2023-04-22T17:07:18.229Z,11.10
2023-04-22T17:09:48.827Z,11.14
2023-04-22T17:12:16.632Z,11.19
2023-04-22T17:14:44.383Z,11.18
2023-04-22T17:17:12.460Z,11.15
2023-04-22T17:19:40.418Z,11.05
2023-04-22T17:22:08.285Z,11.05
2023-04-22T17:24:36.767Z,11.04
2023-04-22T17:27:06.034Z,11.13
2023-04-22T17:29:33.776Z,10.95
2023-04-22T17:32:01.818Z,11.03
2023-04-22T17:34:29.611Z,11.07
2023-04-22T17:36:57.437Z,11.08
2023-04-22T17:39:25.312Z,11.07
2023-04-22T17:41:53.048Z,11.01
2023-04-22T17:44:22.158Z,11.02
2023-04-22T17:46:50.032Z,11.03
2023-04-22T17:49:17.876Z,10.92
2023-04-22T17:51:45.666Z,10.86
2023-04-22T17:54:13.723Z,10.81
2023-04-22T17:56:41.506Z,10.84
2023-04-22T17:59:11.274Z,10.82
2023-04-22T18:01:40.725Z,10.90
2023-04-22T18:04:08.700Z,10.85
2023-04-22T18:06:36.658Z,10.92
2023-04-22T18:09:04.754Z,10.96
2023-04-22T18:11:32.840Z,11.01
2023-04-22T18:14:00.925Z,11.06
2023-04-22T18:16:28.747Z,11.10
2023-04-22T18:18:59.058Z,11.14
2023-04-22T18:21:29.004Z,11.16
2023-04-22T18:23:57.100Z,11.19
2023-04-22T18:26:24.849Z,11.22
2023-04-22T18:28:52.685Z,11.19
2023-04-22T18:31:21.029Z,11.20
2023-04-22T18:33:48.829Z,11.18
2023-04-22T18:36:18.495Z,11.18
2023-04-22T18:38:46.336Z,11.18
2023-04-22T18:41:14.774Z,11.16
2023-04-22T18:43:42.588Z,11.12
2023-04-22T18:46:10.534Z,11.11
2023-04-22T18:48:38.380Z,11.06
2023-04-22T18:51:06.478Z,11.07
2023-04-22T18:53:36.014Z,11.06
2023-04-22T18:56:03.900Z,11.02
2023-04-22T18:58:31.738Z,11.03
2023-04-22T19:00:59.743Z,11.01
2023-04-22T19:03:27.808Z,11.01
2023-04-22T19:05:56.403Z,10.98
2023-04-22T19:08:24.586Z,10.91
2023-04-22T19:10:54.001Z,10.98
2023-04-22T19:13:29.190Z,10.93
2023-04-22T19:15:57.801Z,10.91
2023-04-22T19:18:25.709Z,10.85
2023-04-22T19:20:56.047Z,10.83
2023-04-22T19:23:23.952Z,10.80
2023-04-22T19:25:53.327Z,10.76
2023-04-22T19:28:52.097Z,10.71
2023-04-22T19:31:19.935Z,10.71
2023-04-22T19:33:48.514Z,10.66
2023-04-22T19:36:16.552Z,10.63
2023-04-22T19:41:38.819Z,10.57
2023-04-22T19:47:09.327Z,10.50
2023-04-22T19:49:38.856Z,10.45
2023-04-22T19:52:09.456Z,10.35
2023-04-22T19:54:37.625Z,10.32
2023-04-22T19:57:07.292Z,10.31
2023-04-22T19:59:35.338Z,10.28
2023-04-22T20:02:03.605Z,10.25
2023-04-22T20:04:32.623Z,10.18
2023-04-22T20:07:02.913Z,10.10
2023-04-22T20:09:37.040Z,10.11
2023-04-22T20:12:06.768Z,10.10
2023-04-22T20:14:34.811Z,10.07
2023-04-22T20:17:05.241Z,10.01
2023-04-22T20:19:39.731Z,10.04
2023-04-22T20:22:10.925Z,10.01
2023-04-22T20:24:40.973Z,9.98
2023-04-22T20:27:10.367Z,9.94
2023-04-22T20:29:39.092Z,9.92
2023-04-22T20:32:08.833Z,9.91
2023-04-22T20:34:37.062Z,9.90
2023-04-22T20:37:09.717Z,9.88
2023-04-22T20:39:38.944Z,9.84
2023-04-22T20:42:07.706Z,9.85
2023-04-22T20:44:36.874Z,9.79
2023-04-22T20:47:04.685Z,9.80
2023-04-22T20:49:32.483Z,9.77
2023-04-22T20:52:00.306Z,9.75
2023-04-22T20:54:29.514Z,9.73
2023-04-22T20:56:58.915Z,9.69
2023-04-22T20:59:26.740Z,9.65
2023-04-22T21:01:56.861Z,9.65
2023-04-22T21:04:26.105Z,9.51
2023-04-22T21:06:55.673Z,9.54
2023-04-22T21:09:24.814Z,9.54
2023-04-22T21:11:53.440Z,9.49
2023-04-22T21:14:26.106Z,9.50
2023-04-22T21:17:01.340Z,9.38
2023-04-22T21:19:34.045Z,9.43
2023-04-22T21:22:04.196Z,9.39
2023-04-22T21:24:32.763Z,9.38
2023-04-22T21:27:01.341Z,9.36
2023-04-22T21:29:29.764Z,9.29
2023-04-22T21:32:08.905Z,9.28
2023-04-22T21:34:37.442Z,9.30
2023-04-22T21:37:06.241Z,9.22
2023-04-22T21:39:34.098Z,9.26
2023-04-22T21:42:02.854Z,9.25
2023-04-22T21:44:30.697Z,9.20
2023-04-22T21:46:59.830Z,9.22
2023-04-22T21:49:27.582Z,9.18
2023-04-22T21:51:55.589Z,9.17
2023-04-22T21:54:23.440Z,9.15
2023-04-22T21:56:51.770Z,9.06
2023-04-22T21:59:19.560Z,9.12
2023-04-22T22:01:47.318Z,9.06
2023-04-22T22:04:16.731Z,9.10
2023-04-22T22:06:44.925Z,9.10
2023-04-22T22:09:12.932Z,9.03
2023-04-22T22:11:40.661Z,9.06
2023-04-22T22:14:08.397Z,9.04
2023-04-22T22:16:38.436Z,8.97
2023-04-22T22:19:07.460Z,8.94
2023-04-22T22:21:36.724Z,8.96
2023-04-22T22:24:04.825Z,8.88
2023-04-22T22:26:32.596Z,8.92
2023-04-22T22:29:00.380Z,8.90
2023-04-22T22:31:29.015Z,8.89
2023-04-22T22:33:57.500Z,8.85
2023-04-22T22:36:25.415Z,8.88
2023-04-22T22:38:54.913Z,8.88
2023-04-22T22:41:22.640Z,8.85
2023-04-22T22:43:50.604Z,8.85
2023-04-22T22:46:18.467Z,8.80
2023-04-22T22:48:46.246Z,8.81
2023-04-22T22:51:16.524Z,8.79
2023-04-22T22:53:45.701Z,8.79
2023-04-22T22:56:15.528Z,8.79
2023-04-22T22:58:43.315Z,8.80
2023-04-22T23:01:11.191Z,8.77
2023-04-22T23:03:39.192Z,8.77
2023-04-22T23:06:08.167Z,8.76
2023-04-22T23:08:35.993Z,8.76
2023-04-22T23:11:03.751Z,8.73
2023-04-22T23:13:32.909Z,8.74
2023-04-22T23:16:00.708Z,8.74
2023-04-22T23:18:29.771Z,8.72
2023-04-22T23:21:00.239Z,8.69
2023-04-22T23:23:29.833Z,8.70
2023-04-22T23:25:58.276Z,8.70
2023-04-22T23:28:26.657Z,8.68
2023-04-22T23:30:56.842Z,8.65
2023-04-22T23:33:26.272Z,8.63
2023-04-22T23:35:56.638Z,8.63
2023-04-22T23:38:24.594Z,8.63
2023-04-22T23:40:52.371Z,8.62
2023-04-22T23:43:20.284Z,8.59
2023-04-22T23:45:48.167Z,8.57
2023-04-22T23:48:17.417Z,8.56
2023-04-22T23:50:45.258Z,8.50
2023-04-22T23:53:13.030Z,8.48
2023-04-22T23:55:41.486Z,8.47
2023-04-22T23:58:09.611Z,8.46
